sensor_id;sensor_type;location;lat;lon;timestamp;temperature;humidity
30385;DHT22;17181;51.002;4.096;2023-04-03T00:00:07;3.30;99.90
30385;DHT22;17181;51.002;4.096;2023-04-03T00:02:33;3.30;99.90
30385;DHT22;17181;51.002;4.096;2023-04-03T00:04:59;3.30;99.90
30385;DHT22;17181;51.002;4.096;2023-04-03T00:07:26;3.40;99.90
30385;DHT22;17181;51.002;4.096;2023-04-03T00:09:52;3.40;99.90
30385;DHT22;17181;51.002;4.096;2023-04-03T00:12:18;3.40;99.90
30385;DHT22;17181;51.002;4.096;2023-04-03T00:14:43;3.40;99.90
30385;DHT22;17181;51.002;4.096;2023-04-03T00:17:09;3.40;99.90
30385;DHT22;17181;51.002;4.096;2023-04-03T00:19:35;3.50;99.90
30385;DHT22;17181;51.002;4.096;2023-04-03T00:22:01;3.50;99.90
30385;DHT22;17181;51.002;4.096;2023-04-03T00:24:26;3.50;99.90
30385;DHT22;17181;51.002;4.096;2023-04-03T00:26:52;3.50;99.90
30385;DHT22;17181;51.002;4.096;2023-04-03T00:29:18;3.60;99.90
30385;DHT22;17181;51.002;4.096;2023-04-03T00:31:44;3.60;99.90
30385;DHT22;17181;51.002;4.096;2023-04-03T00:34:10;3.60;99.90
30385;DHT22;17181;51.002;4.096;2023-04-03T00:36:36;3.60;99.90
30385;DHT22;17181;51.002;4.096;2023-04-03T00:39:02;3.70;99.90
30385;DHT22;17181;51.002;4.096;2023-04-03T00:41:28;3.70;99.90
30385;DHT22;17181;51.002;4.096;2023-04-03T00:43:53;3.70;99.90
30385;DHT22;17181;51.002;4.096;2023-04-03T00:46:19;3.70;99.90
30385;DHT22;17181;51.002;4.096;2023-04-03T00:48:46;3.70;99.90
30385;DHT22;17181;51.002;4.096;2023-04-03T00:51:24;3.80;99.90
30385;DHT22;17181;51.002;4.096;2023-04-03T00:53:58;3.80;99.90
30385;DHT22;17181;51.002;4.096;2023-04-03T00:56:27;3.80;99.90
30385;DHT22;17181;51.002;4.096;2023-04-03T01:01:25;3.90;99.90
30385;DHT22;17181;51.002;4.096;2023-04-03T01:03:51;3.90;99.90
30385;DHT22;17181;51.002;4.096;2023-04-03T01:06:28;3.90;99.90
30385;DHT22;17181;51.002;4.096;2023-04-03T01:09:02;3.90;99.90
30385;DHT22;17181;51.002;4.096;2023-04-03T01:11:28;3.90;99.90
30385;DHT22;17181;51.002;4.096;2023-04-03T01:13:54;3.90;99.90
30385;DHT22;17181;51.002;4.096;2023-04-03T01:16:20;3.90;99.90
30385;DHT22;17181;51.002;4.096;2023-04-03T01:18:46;3.90;99.90
30385;DHT22;17181;51.002;4.096;2023-04-03T01:26:51;4.00;99.90
30385;DHT22;17181;51.002;4.096;2023-04-03T01:29:17;4.10;99.90
30385;DHT22;17181;51.002;4.096;2023-04-03T01:31:56;4.10;99.90
30385;DHT22;17181;51.002;4.096;2023-04-03T01:34:23;4.00;99.90
30385;DHT22;17181;51.002;4.096;2023-04-03T01:36:50;4.00;99.90
30385;DHT22;17181;51.002;4.096;2023-04-03T01:39:17;4.00;99.90
30385;DHT22;17181;51.002;4.096;2023-04-03T01:41:43;4.00;99.90
30385;DHT22;17181;51.002;4.096;2023-04-03T01:44:14;4.00;99.90
30385;DHT22;17181;51.002;4.096;2023-04-03T01:46:39;4.00;99.90
30385;DHT22;17181;51.002;4.096;2023-04-03T01:49:06;4.00;99.90
30385;DHT22;17181;51.002;4.096;2023-04-03T01:51:32;4.00;99.90
30385;DHT22;17181;51.002;4.096;2023-04-03T01:53:59;4.00;99.90
30385;DHT22;17181;51.002;4.096;2023-04-03T01:56:24;3.90;99.90
30385;DHT22;17181;51.002;4.096;2023-04-03T01:58:50;4.00;99.90
30385;DHT22;17181;51.002;4.096;2023-04-03T02:01:17;4.00;99.90
30385;DHT22;17181;51.002;4.096;2023-04-03T02:03:43;4.00;99.90
30385;DHT22;17181;51.002;4.096;2023-04-03T02:06:08;3.90;99.90
30385;DHT22;17181;51.002;4.096;2023-04-03T02:08:34;4.00;99.90
30385;DHT22;17181;51.002;4.096;2023-04-03T02:11:00;4.00;99.90
30385;DHT22;17181;51.002;4.096;2023-04-03T02:13:26;3.90;99.90
30385;DHT22;17181;51.002;4.096;2023-04-03T02:15:52;3.90;99.90
30385;DHT22;17181;51.002;4.096;2023-04-03T02:18:18;3.90;99.90
30385;DHT22;17181;51.002;4.096;2023-04-03T02:20:44;3.90;99.90
30385;DHT22;17181;51.002;4.096;2023-04-03T02:23:11;3.90;99.90
30385;DHT22;17181;51.002;4.096;2023-04-03T02:25:37;3.90;99.90
30385;DHT22;17181;51.002;4.096;2023-04-03T02:28:03;3.90;99.90
30385;DHT22;17181;51.002;4.096;2023-04-03T02:30:30;3.90;99.90
30385;DHT22;17181;51.002;4.096;2023-04-03T02:32:56;3.90;99.90
30385;DHT22;17181;51.002;4.096;2023-04-03T02:35:21;3.90;99.90
30385;DHT22;17181;51.002;4.096;2023-04-03T02:37:48;3.90;99.90
30385;DHT22;17181;51.002;4.096;2023-04-03T02:40:14;4.00;99.90
30385;DHT22;17181;51.002;4.096;2023-04-03T02:42:40;3.90;99.90
30385;DHT22;17181;51.002;4.096;2023-04-03T02:45:06;3.90;99.90
30385;DHT22;17181;51.002;4.096;2023-04-03T02:47:32;3.90;99.90
30385;DHT22;17181;51.002;4.096;2023-04-03T02:49:58;3.90;99.90
30385;DHT22;17181;51.002;4.096;2023-04-03T02:52:24;3.90;99.90
30385;DHT22;17181;51.002;4.096;2023-04-03T02:54:53;3.90;99.90
30385;DHT22;17181;51.002;4.096;2023-04-03T02:57:19;3.90;99.90
30385;DHT22;17181;51.002;4.096;2023-04-03T02:59:45;3.90;99.90
30385;DHT22;17181;51.002;4.096;2023-04-03T03:02:12;3.80;99.90
30385;DHT22;17181;51.002;4.096;2023-04-03T03:04:37;3.80;99.90
30385;DHT22;17181;51.002;4.096;2023-04-03T03:07:04;3.90;99.90
30385;DHT22;17181;51.002;4.096;2023-04-03T03:09:30;3.90;99.90
30385;DHT22;17181;51.002;4.096;2023-04-03T03:11:56;3.90;99.90
30385;DHT22;17181;51.002;4.096;2023-04-03T03:14:22;3.80;99.90
30385;DHT22;17181;51.002;4.096;2023-04-03T03:16:48;3.80;99.90
30385;DHT22;17181;51.002;4.096;2023-04-03T03:19:14;3.80;99.90
30385;DHT22;17181;51.002;4.096;2023-04-03T03:21:41;3.80;99.90
30385;DHT22;17181;51.002;4.096;2023-04-03T03:24:07;3.80;99.90
30385;DHT22;17181;51.002;4.096;2023-04-03T03:26:32;3.80;99.90
30385;DHT22;17181;51.002;4.096;2023-04-03T03:28:58;3.80;99.90
30385;DHT22;17181;51.002;4.096;2023-04-03T03:31:25;3.70;99.90
30385;DHT22;17181;51.002;4.096;2023-04-03T03:33:51;3.70;99.90
30385;DHT22;17181;51.002;4.096;2023-04-03T03:36:16;3.70;99.90
30385;DHT22;17181;51.002;4.096;2023-04-03T03:38:42;3.70;99.90
30385;DHT22;17181;51.002;4.096;2023-04-03T03:41:09;3.70;99.90
30385;DHT22;17181;51.002;4.096;2023-04-03T03:43:35;3.70;99.90
30385;DHT22;17181;51.002;4.096;2023-04-03T03:46:02;3.60;99.90
30385;DHT22;17181;51.002;4.096;2023-04-03T03:48:28;3.60;99.90
30385;DHT22;17181;51.002;4.096;2023-04-03T03:50:55;3.60;99.90
30385;DHT22;17181;51.002;4.096;2023-04-03T03:53:24;3.60;99.90
30385;DHT22;17181;51.002;4.096;2023-04-03T03:55:53;3.60;99.90
30385;DHT22;17181;51.002;4.096;2023-04-03T03:58:22;3.60;99.90
30385;DHT22;17181;51.002;4.096;2023-04-03T04:00:47;3.50;99.90
30385;DHT22;17181;51.002;4.096;2023-04-03T04:03:13;3.60;99.90
30385;DHT22;17181;51.002;4.096;2023-04-03T04:05:40;3.50;99.90
30385;DHT22;17181;51.002;4.096;2023-04-03T04:08:06;3.50;99.90
30385;DHT22;17181;51.002;4.096;2023-04-03T04:10:33;3.40;99.90
30385;DHT22;17181;51.002;4.096;2023-04-03T04:13:00;3.40;99.90
30385;DHT22;17181;51.002;4.096;2023-04-03T04:15:27;3.40;99.90
30385;DHT22;17181;51.002;4.096;2023-04-03T04:17:54;3.40;99.90
30385;DHT22;17181;51.002;4.096;2023-04-03T04:20:22;3.30;99.90
30385;DHT22;17181;51.002;4.096;2023-04-03T04:22:48;3.30;99.90
30385;DHT22;17181;51.002;4.096;2023-04-03T04:25:16;3.30;99.90
30385;DHT22;17181;51.002;4.096;2023-04-03T04:27:42;3.20;99.90
30385;DHT22;17181;51.002;4.096;2023-04-03T04:30:08;3.10;99.90
30385;DHT22;17181;51.002;4.096;2023-04-03T04:32:35;3.10;99.90
30385;DHT22;17181;51.002;4.096;2023-04-03T04:35:02;3.00;99.90
30385;DHT22;17181;51.002;4.096;2023-04-03T04:37:30;3.00;99.90
30385;DHT22;17181;51.002;4.096;2023-04-03T04:39:56;3.00;99.90
30385;DHT22;17181;51.002;4.096;2023-04-03T04:42:21;2.90;99.90
30385;DHT22;17181;51.002;4.096;2023-04-03T04:44:48;2.80;99.90
30385;DHT22;17181;51.002;4.096;2023-04-03T04:47:15;2.80;99.90
30385;DHT22;17181;51.002;4.096;2023-04-03T04:49:41;2.70;99.90
30385;DHT22;17181;51.002;4.096;2023-04-03T04:52:08;2.70;99.90
30385;DHT22;17181;51.002;4.096;2023-04-03T04:54:34;2.70;99.90
30385;DHT22;17181;51.002;4.096;2023-04-03T04:56:59;2.70;99.90
30385;DHT22;17181;51.002;4.096;2023-04-03T04:59:27;2.60;99.90
30385;DHT22;17181;51.002;4.096;2023-04-03T05:01:55;2.60;99.90
30385;DHT22;17181;51.002;4.096;2023-04-03T05:04:21;2.50;99.90
30385;DHT22;17181;51.002;4.096;2023-04-03T05:06:51;2.50;99.90
30385;DHT22;17181;51.002;4.096;2023-04-03T05:09:22;2.50;99.90
30385;DHT22;17181;51.002;4.096;2023-04-03T05:11:49;2.50;99.90
30385;DHT22;17181;51.002;4.096;2023-04-03T05:14:18;2.40;99.90
30385;DHT22;17181;51.002;4.096;2023-04-03T05:16:45;2.40;99.90
30385;DHT22;17181;51.002;4.096;2023-04-03T05:19:10;2.40;99.90
30385;DHT22;17181;51.002;4.096;2023-04-03T05:21:38;2.30;99.90
30385;DHT22;17181;51.002;4.096;2023-04-03T05:24:09;2.30;99.90
30385;DHT22;17181;51.002;4.096;2023-04-03T05:26:38;2.30;99.90
30385;DHT22;17181;51.002;4.096;2023-04-03T05:29:05;2.20;99.90
30385;DHT22;17181;51.002;4.096;2023-04-03T05:31:31;2.20;99.90
30385;DHT22;17181;51.002;4.096;2023-04-03T05:33:57;2.20;99.90
30385;DHT22;17181;51.002;4.096;2023-04-03T05:36:24;2.20;99.90
30385;DHT22;17181;51.002;4.096;2023-04-03T05:38:55;2.20;99.90
30385;DHT22;17181;51.002;4.096;2023-04-03T05:41:22;2.10;99.90
30385;DHT22;17181;51.002;4.096;2023-04-03T05:43:49;2.10;99.90
30385;DHT22;17181;51.002;4.096;2023-04-03T05:46:18;2.20;99.90
30385;DHT22;17181;51.002;4.096;2023-04-03T05:48:46;2.10;99.90
30385;DHT22;17181;51.002;4.096;2023-04-03T05:51:39;2.10;99.90
30385;DHT22;17181;51.002;4.096;2023-04-03T05:54:25;2.10;99.90
30385;DHT22;17181;51.002;4.096;2023-04-03T05:56:56;2.10;99.90
30385;DHT22;17181;51.002;4.096;2023-04-03T05:59:23;2.10;99.90
30385;DHT22;17181;51.002;4.096;2023-04-03T06:01:51;2.10;99.90
30385;DHT22;17181;51.002;4.096;2023-04-03T06:04:18;2.30;99.90
30385;DHT22;17181;51.002;4.096;2023-04-03T06:06:55;2.30;99.90
30385;DHT22;17181;51.002;4.096;2023-04-03T06:09:24;2.20;99.90
30385;DHT22;17181;51.002;4.096;2023-04-03T06:11:50;2.30;99.90
30385;DHT22;17181;51.002;4.096;2023-04-03T06:14:16;2.40;99.90
30385;DHT22;17181;51.002;4.096;2023-04-03T06:16:42;2.40;99.90
30385;DHT22;17181;51.002;4.096;2023-04-03T06:19:10;2.40;99.90
30385;DHT22;17181;51.002;4.096;2023-04-03T06:21:39;2.50;99.90
30385;DHT22;17181;51.002;4.096;2023-04-03T06:24:06;2.60;99.90
30385;DHT22;17181;51.002;4.096;2023-04-03T06:26:32;2.60;99.90
30385;DHT22;17181;51.002;4.096;2023-04-03T06:28:58;2.70;99.90
30385;DHT22;17181;51.002;4.096;2023-04-03T06:31:24;2.70;99.90
30385;DHT22;17181;51.002;4.096;2023-04-03T06:33:50;2.80;99.90
30385;DHT22;17181;51.002;4.096;2023-04-03T06:36:18;2.90;99.90
30385;DHT22;17181;51.002;4.096;2023-04-03T06:38:48;3.00;99.90
30385;DHT22;17181;51.002;4.096;2023-04-03T06:41:14;3.10;99.90
30385;DHT22;17181;51.002;4.096;2023-04-03T06:43:40;3.10;99.90
30385;DHT22;17181;51.002;4.096;2023-04-03T06:46:06;3.20;99.90
30385;DHT22;17181;51.002;4.096;2023-04-03T06:48:32;3.30;99.90
30385;DHT22;17181;51.002;4.096;2023-04-03T06:50:57;3.50;99.90
30385;DHT22;17181;51.002;4.096;2023-04-03T06:53:23;3.50;99.90
30385;DHT22;17181;51.002;4.096;2023-04-03T06:55:49;3.60;99.90
30385;DHT22;17181;51.002;4.096;2023-04-03T06:58:15;3.80;99.90
30385;DHT22;17181;51.002;4.096;2023-04-03T07:00:43;3.80;99.90
30385;DHT22;17181;51.002;4.096;2023-04-03T07:03:12;4.00;99.90
30385;DHT22;17181;51.002;4.096;2023-04-03T07:05:38;4.20;99.90
30385;DHT22;17181;51.002;4.096;2023-04-03T07:08:04;4.20;99.90
30385;DHT22;17181;51.002;4.096;2023-04-03T07:10:30;4.40;99.90
30385;DHT22;17181;51.002;4.096;2023-04-03T07:12:56;4.40;99.90
30385;DHT22;17181;51.002;4.096;2023-04-03T07:15:22;4.50;99.90
30385;DHT22;17181;51.002;4.096;2023-04-03T07:17:47;4.60;99.90
30385;DHT22;17181;51.002;4.096;2023-04-03T07:20:14;4.80;99.90
30385;DHT22;17181;51.002;4.096;2023-04-03T07:22:40;4.80;99.90
30385;DHT22;17181;51.002;4.096;2023-04-03T07:25:06;5.00;99.90
30385;DHT22;17181;51.002;4.096;2023-04-03T07:27:33;5.10;99.90
30385;DHT22;17181;51.002;4.096;2023-04-03T07:29:59;5.10;99.90
30385;DHT22;17181;51.002;4.096;2023-04-03T07:32:25;5.20;99.90
30385;DHT22;17181;51.002;4.096;2023-04-03T07:34:51;5.30;99.90
30385;DHT22;17181;51.002;4.096;2023-04-03T07:37:16;5.40;99.90
30385;DHT22;17181;51.002;4.096;2023-04-03T07:39:44;5.50;99.90
30385;DHT22;17181;51.002;4.096;2023-04-03T07:42:10;5.60;99.90
30385;DHT22;17181;51.002;4.096;2023-04-03T07:44:38;5.70;99.90
30385;DHT22;17181;51.002;4.096;2023-04-03T07:47:03;5.70;99.90
30385;DHT22;17181;51.002;4.096;2023-04-03T07:49:29;5.90;99.90
30385;DHT22;17181;51.002;4.096;2023-04-03T07:51:55;6.00;99.90
30385;DHT22;17181;51.002;4.096;2023-04-03T07:54:21;6.00;99.90
30385;DHT22;17181;51.002;4.096;2023-04-03T07:56:47;6.10;99.90
30385;DHT22;17181;51.002;4.096;2023-04-03T07:59:12;6.20;99.90
30385;DHT22;17181;51.002;4.096;2023-04-03T08:01:38;6.20;99.90
30385;DHT22;17181;51.002;4.096;2023-04-03T08:04:04;6.30;99.90
30385;DHT22;17181;51.002;4.096;2023-04-03T08:06:31;6.30;99.90
30385;DHT22;17181;51.002;4.096;2023-04-03T08:09:00;6.40;99.90
30385;DHT22;17181;51.002;4.096;2023-04-03T08:11:26;6.40;99.90
30385;DHT22;17181;51.002;4.096;2023-04-03T08:13:52;6.50;99.90
30385;DHT22;17181;51.002;4.096;2023-04-03T08:16:20;6.60;99.90
30385;DHT22;17181;51.002;4.096;2023-04-03T08:18:48;6.70;99.90
30385;DHT22;17181;51.002;4.096;2023-04-03T08:21:13;6.80;99.90
30385;DHT22;17181;51.002;4.096;2023-04-03T08:23:40;6.80;99.90
30385;DHT22;17181;51.002;4.096;2023-04-03T08:26:11;6.80;99.90
30385;DHT22;17181;51.002;4.096;2023-04-03T08:28:38;6.90;99.90
